createdAt,value
2019-01-16T00:00:59.620Z,3.60
2019-01-16T00:03:48.510Z,6.00
2019-01-16T00:06:42.854Z,7.83
2019-01-16T00:09:30.117Z,4.77
2019-01-16T00:12:21.377Z,4.17
2019-01-16T00:15:08.443Z,2.67
2019-01-16T00:17:55.011Z,3.57
2019-01-16T00:20:58.534Z,5.27
2019-01-16T00:23:51.021Z,4.97
2019-01-16T00:26:50.172Z,4.60
2019-01-16T00:29:43.213Z,3.20
2019-01-16T00:32:32.020Z,3.37
2019-01-16T00:35:19.439Z,2.97
2019-01-16T00:38:16.427Z,4.67
2019-01-16T00:41:05.898Z,5.00
2019-01-16T00:43:53.740Z,4.60
2019-01-16T00:46:49.102Z,5.43
2019-01-16T00:49:29.725Z,5.80
2019-01-16T00:52:10.676Z,4.17
2019-01-16T00:54:50.177Z,4.90
2019-01-16T00:57:45.477Z,5.70
2019-01-16T01:00:39.742Z,3.90
2019-01-16T01:03:28.221Z,4.70
2019-01-16T01:06:29.695Z,3.87
2019-01-16T01:09:20.223Z,5.07
2019-01-16T01:12:05.986Z,4.10
2019-01-16T01:14:53.238Z,5.43
2019-01-16T01:17:50.880Z,4.53
2019-01-16T01:20:38.258Z,4.57
2019-01-16T01:23:42.027Z,5.43
2019-01-16T01:26:28.930Z,7.07
2019-01-16T01:29:13.290Z,5.93
2019-01-16T01:32:13.730Z,5.13
2019-01-16T01:34:52.834Z,4.53
2019-01-16T01:37:45.547Z,5.97
2019-01-16T01:40:31.396Z,7.33
2019-01-16T01:43:20.393Z,4.80
2019-01-16T01:46:09.381Z,4.93
2019-01-16T01:49:01.301Z,5.87
2019-01-16T01:51:57.839Z,5.10
2019-01-16T01:54:52.494Z,4.00
2019-01-16T01:57:43.693Z,4.43
2019-01-16T02:00:32.694Z,4.83
2019-01-16T02:03:19.765Z,5.87
2019-01-16T02:06:27.007Z,4.20
2019-01-16T02:09:13.808Z,7.17
2019-01-16T02:12:00.660Z,4.20
2019-01-16T02:14:47.957Z,4.77
2019-01-16T02:17:45.994Z,5.67
2019-01-16T02:20:52.811Z,3.67
2019-01-16T02:23:48.241Z,5.33
2019-01-16T02:26:40.609Z,4.37
2019-01-16T02:29:44.479Z,5.57
2019-01-16T02:32:29.334Z,3.50
2019-01-16T02:35:22.088Z,4.57
2019-01-16T02:37:59.215Z,5.57
2019-01-16T02:40:56.884Z,4.67
2019-01-16T02:43:44.936Z,4.87
2019-01-16T02:46:44.112Z,4.37
2019-01-16T02:49:25.016Z,5.53
2019-01-16T02:52:20.921Z,5.00
2019-01-16T02:55:16.470Z,4.63
2019-01-16T02:58:04.250Z,6.10
2019-01-16T03:01:00.582Z,5.10
2019-01-16T03:03:47.478Z,6.93
2019-01-16T03:06:27.194Z,5.90
2019-01-16T03:09:15.939Z,5.30
2019-01-16T03:12:20.737Z,5.80
2019-01-16T03:15:21.625Z,4.40
2019-01-16T03:18:07.353Z,5.43
2019-01-16T03:20:55.548Z,5.43
2019-01-16T03:23:42.874Z,6.40
2019-01-16T03:26:30.097Z,5.07
2019-01-16T03:29:17.803Z,5.20
2019-01-16T03:32:09.269Z,4.37
2019-01-16T03:35:01.048Z,8.50
2019-01-16T03:37:55.910Z,6.87
2019-01-16T03:40:44.108Z,5.70
2019-01-16T03:43:42.131Z,6.73
2019-01-16T03:46:45.577Z,6.70
2019-01-16T03:49:40.443Z,6.50
2019-01-16T03:52:37.898Z,6.50
2019-01-16T03:55:26.801Z,6.50
2019-01-16T03:58:15.284Z,7.07
2019-01-16T04:01:07.202Z,8.50
2019-01-16T04:03:53.940Z,5.57
2019-01-16T04:06:42.808Z,7.10
2019-01-16T04:09:37.266Z,7.97
2019-01-16T04:12:26.716Z,7.70
2019-01-16T04:15:19.538Z,8.20
2019-01-16T04:18:08.041Z,5.73
2019-01-16T04:20:54.462Z,8.37
2019-01-16T04:23:40.226Z,7.40
2019-01-16T04:26:54.973Z,5.77
2019-01-16T04:30:02.435Z,8.10
2019-01-16T04:32:54.061Z,6.30
2019-01-16T04:35:46.269Z,7.70
2019-01-16T04:38:54.255Z,5.97
2019-01-16T04:41:46.595Z,8.50
2019-01-16T04:44:39.613Z,8.10
2019-01-16T04:47:39.899Z,5.60
2019-01-16T04:50:18.529Z,9.37
2019-01-16T04:53:17.267Z,6.90
2019-01-16T04:56:28.649Z,6.83
2019-01-16T04:59:11.673Z,8.70
2019-01-16T05:01:59.973Z,6.13
2019-01-16T05:04:48.457Z,7.47
2019-01-16T05:07:35.974Z,7.80
2019-01-16T05:10:29.035Z,6.27
2019-01-16T05:13:15.956Z,6.67
2019-01-16T05:16:08.530Z,7.17
2019-01-16T05:19:04.021Z,5.03
2019-01-16T05:21:56.397Z,6.50
2019-01-16T05:24:54.848Z,7.07
2019-01-16T05:27:50.093Z,6.93
2019-01-16T05:30:35.593Z,6.17
2019-01-16T05:33:17.011Z,5.13
2019-01-16T05:36:04.230Z,8.40
2019-01-16T05:39:01.558Z,7.03
2019-01-16T05:41:58.931Z,8.53
2019-01-16T05:44:53.477Z,7.03
2019-01-16T05:47:41.994Z,7.50
2019-01-16T05:50:32.285Z,6.97
2019-01-16T05:53:19.609Z,6.40
2019-01-16T05:56:17.281Z,9.53
2019-01-16T05:59:02.855Z,7.20
2019-01-16T06:02:01.006Z,11.40
2019-01-16T06:04:48.231Z,8.47
2019-01-16T06:07:41.079Z,6.57
2019-01-16T06:10:35.758Z,10.27
2019-01-16T06:13:39.963Z,8.90
2019-01-16T06:16:23.287Z,7.17
2019-01-16T06:19:31.985Z,6.53
2019-01-16T06:22:24.059Z,9.23
2019-01-16T06:25:44.771Z,7.83
2019-01-16T06:28:46.208Z,11.57
2019-01-16T06:31:49.159Z,10.20
2019-01-16T06:34:32.088Z,10.50
2019-01-16T06:37:44.819Z,13.87
2019-01-16T06:40:33.038Z,11.27
2019-01-16T06:43:20.592Z,9.53
2019-01-16T06:46:09.289Z,7.67
2019-01-16T06:48:53.635Z,6.37
2019-01-16T06:51:44.954Z,6.43
2019-01-16T06:54:31.751Z,8.80
2019-01-16T06:57:20.134Z,5.63
2019-01-16T07:00:12.306Z,6.13
2019-01-16T07:02:59.609Z,6.93
2019-01-16T07:06:00.385Z,6.00
2019-01-16T07:08:47.035Z,9.37
2019-01-16T07:11:31.303Z,5.30
2019-01-16T07:14:21.202Z,6.30
2019-01-16T07:17:09.762Z,7.07
2019-01-16T07:20:09.876Z,5.87
2019-01-16T07:22:50.046Z,7.17
2019-01-16T07:25:44.938Z,4.73
2019-01-16T07:28:43.224Z,5.30
2019-01-16T07:31:34.948Z,8.83
2019-01-16T07:34:26.651Z,5.83
2019-01-16T07:37:14.882Z,6.60
2019-01-16T07:39:53.154Z,7.83
2019-01-16T07:42:46.770Z,8.57
2019-01-16T07:45:30.304Z,10.07
2019-01-16T07:48:18.917Z,8.73
2019-01-16T07:51:10.271Z,8.03
2019-01-16T07:53:57.559Z,7.57
2019-01-16T07:56:37.656Z,11.13
2019-01-16T07:59:24.825Z,6.70
2019-01-16T08:02:05.499Z,6.70
2019-01-16T08:05:02.351Z,8.80
2019-01-16T08:07:53.152Z,6.03
2019-01-16T08:10:48.586Z,7.77
2019-01-16T08:13:35.995Z,11.80
2019-01-16T08:16:30.550Z,8.40
2019-01-16T08:19:13.275Z,7.40
2019-01-16T08:22:18.425Z,10.27
2019-01-16T08:25:19.127Z,9.97
2019-01-16T08:28:16.976Z,9.47
2019-01-16T08:31:04.712Z,8.93
2019-01-16T08:34:07.989Z,11.00
2019-01-16T08:36:45.493Z,10.43
2019-01-16T08:39:40.092Z,11.50
2019-01-16T08:42:30.984Z,10.33
2019-01-16T08:45:29.583Z,11.97
2019-01-16T08:48:26.085Z,9.90
2019-01-16T08:51:17.225Z,9.07
2019-01-16T08:54:04.482Z,8.03
2019-01-16T08:57:06.236Z,10.53
2019-01-16T08:59:59.391Z,9.13
2019-01-16T09:02:45.972Z,11.83
2019-01-16T09:05:35.706Z,10.00
2019-01-16T09:08:23.443Z,8.77
2019-01-16T09:11:10.704Z,8.63
2019-01-16T09:14:01.970Z,15.47
2019-01-16T09:16:49.422Z,8.00
2019-01-16T09:19:27.620Z,11.07
2019-01-16T09:22:23.770Z,8.20
2019-01-16T09:25:18.827Z,8.90
2019-01-16T09:28:12.393Z,11.00
2019-01-16T09:30:52.842Z,8.97
2019-01-16T09:33:32.675Z,11.00
2019-01-16T09:36:21.270Z,12.17
2019-01-16T09:39:13.212Z,20.43
2019-01-16T09:42:09.724Z,15.20
2019-01-16T09:45:06.347Z,13.43
2019-01-16T09:47:51.435Z,9.33
2019-01-16T09:50:47.627Z,11.17
2019-01-16T09:53:28.546Z,11.20
2019-01-16T09:56:37.463Z,10.47
2019-01-16T09:59:26.899Z,14.20
2019-01-16T10:02:19.559Z,11.17
2019-01-16T10:05:20.611Z,11.20
2019-01-16T10:08:11.769Z,12.47
2019-01-16T10:11:23.386Z,9.33
2019-01-16T10:14:25.574Z,14.10
2019-01-16T10:17:14.766Z,12.67
2019-01-16T10:20:05.692Z,11.87
2019-01-16T10:22:50.262Z,13.60
2019-01-16T10:25:39.117Z,13.00
2019-01-16T10:28:41.950Z,9.37
2019-01-16T10:31:29.094Z,11.90
2019-01-16T10:34:44.648Z,8.57
2019-01-16T10:37:31.894Z,9.13
2019-01-16T10:40:32.319Z,10.47
2019-01-16T10:43:19.299Z,8.30
2019-01-16T10:46:20.097Z,9.57
2019-01-16T10:49:13.299Z,8.43
2019-01-16T10:52:04.785Z,9.40
2019-01-16T10:54:57.705Z,8.23
2019-01-16T10:57:52.299Z,9.70
2019-01-16T11:00:39.239Z,6.53
2019-01-16T11:03:28.505Z,7.37
2019-01-16T11:06:17.285Z,9.50
2019-01-16T11:09:08.461Z,9.10
2019-01-16T11:12:07.718Z,9.03
2019-01-16T11:14:52.505Z,9.40
2019-01-16T11:17:45.134Z,8.17
2019-01-16T11:20:35.152Z,10.53
2019-01-16T11:23:40.840Z,8.50
2019-01-16T11:30:05.512Z,13.07
2019-01-16T11:32:52.378Z,11.43
2019-01-16T11:35:42.874Z,9.23
2019-01-16T11:38:45.938Z,10.47
2019-01-16T11:41:42.621Z,8.80
2019-01-16T11:44:30.964Z,7.40
2019-01-16T11:47:25.694Z,11.13
2019-01-16T11:50:13.100Z,14.67
2019-01-16T11:53:16.058Z,9.63
2019-01-16T11:56:10.952Z,7.60
2019-01-16T11:58:55.850Z,10.97
2019-01-16T12:01:39.310Z,7.67
2019-01-16T12:04:24.647Z,9.33
2019-01-16T12:07:02.400Z,6.50
2019-01-16T12:09:49.657Z,9.03
2019-01-16T12:12:52.733Z,10.73
2019-01-16T12:15:47.332Z,8.30
2019-01-16T12:18:39.392Z,10.40
2019-01-16T12:21:28.906Z,10.73
2019-01-16T12:24:14.894Z,11.43
2019-01-16T12:27:01.945Z,11.00
2019-01-16T12:29:39.927Z,11.37
2019-01-16T12:32:29.226Z,7.73
2019-01-16T12:35:38.149Z,8.23
2019-01-16T12:38:39.237Z,7.30
2019-01-16T12:41:25.889Z,6.20
2019-01-16T12:44:14.586Z,9.10
2019-01-16T12:47:17.010Z,8.30
2019-01-16T12:50:08.617Z,8.63
2019-01-16T12:53:15.386Z,7.13
2019-01-16T12:56:22.982Z,9.03
2019-01-16T12:59:14.218Z,9.37
2019-01-16T13:02:02.811Z,15.97
2019-01-16T13:05:06.662Z,12.67
2019-01-16T13:07:55.937Z,6.80
2019-01-16T13:10:43.185Z,8.93
2019-01-16T13:13:31.532Z,8.83
2019-01-16T13:16:18.664Z,9.30
2019-01-16T13:19:16.196Z,7.93
2019-01-16T13:22:03.548Z,11.10
2019-01-16T13:25:20.920Z,8.07
2019-01-16T13:28:24.559Z,15.67
2019-01-16T13:31:22.158Z,6.27
2019-01-16T13:34:12.163Z,10.43
2019-01-16T13:37:14.278Z,19.27
2019-01-16T13:40:06.116Z,21.43
2019-01-16T13:43:02.142Z,20.77
2019-01-16T13:45:50.385Z,6.77
2019-01-16T13:48:32.509Z,6.03
2019-01-16T13:51:29.457Z,8.20
2019-01-16T13:54:35.380Z,8.27
2019-01-16T13:57:26.040Z,6.77
2019-01-16T14:00:29.804Z,7.40
2019-01-16T14:03:31.848Z,7.73
2019-01-16T14:06:20.080Z,10.40
2019-01-16T14:09:14.893Z,10.43
2019-01-16T14:12:01.753Z,8.23
2019-01-16T14:14:55.219Z,11.77
2019-01-16T14:17:54.647Z,9.10
2019-01-16T14:20:41.801Z,7.83
2019-01-16T14:23:43.263Z,7.00
2019-01-16T14:26:33.084Z,7.83
2019-01-16T14:29:22.847Z,7.73
2019-01-16T14:32:14.909Z,10.07
2019-01-16T14:35:06.992Z,5.27
2019-01-16T14:38:01.118Z,6.83
2019-01-16T14:40:51.616Z,9.37
2019-01-16T14:43:43.851Z,10.90
2019-01-16T14:46:33.120Z,8.33
2019-01-16T14:49:28.860Z,6.57
2019-01-16T14:52:25.199Z,10.43
2019-01-16T14:55:21.419Z,10.83
2019-01-16T14:58:13.564Z,9.70
2019-01-16T15:01:22.665Z,10.30
2019-01-16T15:04:30.438Z,14.57
2019-01-16T15:07:08.691Z,12.20
2019-01-16T15:09:56.069Z,12.57
2019-01-16T15:12:44.308Z,10.83
2019-01-16T15:15:33.261Z,13.57
2019-01-16T15:18:25.403Z,12.37
2019-01-16T15:21:12.805Z,11.17
2019-01-16T15:24:25.565Z,11.87
2019-01-16T15:27:29.561Z,15.03
2019-01-16T15:30:26.355Z,9.40
2019-01-16T15:33:16.011Z,10.10
2019-01-16T15:36:09.151Z,10.60
2019-01-16T15:39:05.736Z,15.77
2019-01-16T15:41:54.783Z,12.57
2019-01-16T15:44:43.473Z,9.53
2019-01-16T15:47:45.065Z,11.77
2019-01-16T15:50:38.438Z,10.33
2019-01-16T15:53:27.694Z,9.93
2019-01-16T15:56:20.430Z,10.50
2019-01-16T15:59:13.794Z,11.17
2019-01-16T16:02:02.650Z,10.33
2019-01-16T16:04:43.622Z,8.47
2019-01-16T16:07:50.127Z,10.70
2019-01-16T16:10:38.648Z,10.97
2019-01-16T16:13:19.847Z,10.57
2019-01-16T16:16:08.025Z,13.77
2019-01-16T16:19:10.664Z,9.90
2019-01-16T16:22:08.493Z,9.93
2019-01-16T16:25:06.950Z,10.50
2019-01-16T16:28:00.853Z,11.47
2019-01-16T16:31:10.409Z,15.23
2019-01-16T16:34:05.742Z,11.47
2019-01-16T16:37:03.469Z,10.03
2019-01-16T16:39:54.413Z,9.63
2019-01-16T16:42:39.842Z,12.80
2019-01-16T16:45:31.814Z,9.93
2019-01-16T16:48:27.224Z,11.20
2019-01-16T16:51:17.358Z,9.90
2019-01-16T16:54:08.536Z,12.60
2019-01-16T16:56:55.756Z,10.33
2019-01-16T17:00:03.073Z,15.07
2019-01-16T17:03:05.972Z,16.70
2019-01-16T17:06:15.611Z,11.53
2019-01-16T17:09:05.472Z,13.90
2019-01-16T17:12:10.015Z,14.17
2019-01-16T17:14:58.021Z,13.37
2019-01-16T17:17:45.836Z,13.60
2019-01-16T17:20:33.129Z,17.83
2019-01-16T17:23:27.409Z,14.03
2019-01-16T17:26:11.610Z,16.13
2019-01-16T17:29:07.120Z,13.20
2019-01-16T17:31:56.107Z,17.30
2019-01-16T17:34:57.183Z,20.07
2019-01-16T17:37:46.958Z,13.10
2019-01-16T17:40:40.662Z,14.70
2019-01-16T17:43:45.305Z,13.63
2019-01-16T17:46:31.220Z,13.00
2019-01-16T17:49:30.576Z,10.73
2019-01-16T17:52:39.767Z,13.10
2019-01-16T17:55:27.460Z,13.53
2019-01-16T17:58:30.933Z,9.77
2019-01-16T18:01:26.037Z,13.70
2019-01-16T18:04:05.560Z,14.77
2019-01-16T18:06:53.857Z,16.07
2019-01-16T18:09:51.297Z,16.37
2019-01-16T18:12:38.623Z,15.10
2019-01-16T18:15:38.206Z,18.20
2019-01-16T18:18:33.446Z,14.37
2019-01-16T18:21:35.164Z,14.57
2019-01-16T18:24:18.812Z,13.57
2019-01-16T18:27:11.201Z,16.47
2019-01-16T18:30:23.330Z,13.77
2019-01-16T18:33:35.601Z,11.07
2019-01-16T18:36:23.680Z,14.33
2019-01-16T18:39:15.727Z,15.23
2019-01-16T18:42:06.429Z,13.63
2019-01-16T18:45:03.930Z,11.27
2019-01-16T18:47:52.764Z,12.47
2019-01-16T18:50:41.448Z,15.57
2019-01-16T18:53:48.958Z,15.67
2019-01-16T18:56:35.965Z,16.53
2019-01-16T18:59:34.200Z,13.73
2019-01-16T19:02:21.846Z,15.43
2019-01-16T19:05:09.114Z,14.73
2019-01-16T19:08:04.269Z,14.57
2019-01-16T19:10:54.529Z,14.90
2019-01-16T19:13:52.278Z,10.90
2019-01-16T19:16:52.527Z,15.70
2019-01-16T19:19:38.728Z,16.63
2019-01-16T19:22:33.816Z,12.70
2019-01-16T19:25:26.464Z,13.93
2019-01-16T19:28:07.914Z,16.07
2019-01-16T19:31:05.760Z,13.37
2019-01-16T19:34:00.367Z,15.90
2019-01-16T19:37:01.072Z,19.23
2019-01-16T19:39:55.239Z,14.73
2019-01-16T19:42:42.939Z,13.27
2019-01-16T19:45:46.634Z,16.37
2019-01-16T19:48:34.839Z,12.87
2019-01-16T19:51:25.314Z,14.83
2019-01-16T19:54:29.932Z,15.27
2019-01-16T19:57:16.924Z,14.70
2019-01-16T20:00:14.401Z,13.87
2019-01-16T20:03:02.881Z,14.47
2019-01-16T20:06:03.903Z,16.50
2019-01-16T20:08:58.518Z,16.83
2019-01-16T20:11:54.441Z,14.23
2019-01-16T20:14:51.651Z,15.97
2019-01-16T20:17:40.748Z,14.57
2019-01-16T20:20:30.540Z,21.23
2019-01-16T20:23:17.385Z,22.47
2019-01-16T20:26:05.013Z,22.07
2019-01-16T20:28:53.207Z,17.97
2019-01-16T20:31:38.746Z,17.37
2019-01-16T20:34:38.762Z,17.63
2019-01-16T20:37:32.823Z,15.00
2019-01-16T20:40:26.499Z,15.50
2019-01-16T20:43:13.435Z,17.97
2019-01-16T20:46:05.791Z,18.70
2019-01-16T20:48:52.959Z,14.57
2019-01-16T20:51:42.722Z,17.87
2019-01-16T20:54:30.685Z,17.33
2019-01-16T20:57:21.866Z,17.03
2019-01-16T21:00:18.031Z,16.93
2019-01-16T21:03:13.897Z,19.07
2019-01-16T21:06:03.856Z,17.07
2019-01-16T21:08:46.978Z,15.63
2019-01-16T21:11:38.217Z,13.27
2019-01-16T21:14:26.640Z,14.47
2019-01-16T21:17:18.144Z,16.47
2019-01-16T21:20:12.676Z,14.83
2019-01-16T21:22:58.326Z,13.83
2019-01-16T21:25:47.607Z,18.07
2019-01-16T21:28:34.837Z,15.03
2019-01-16T21:31:21.732Z,15.00
2019-01-16T21:34:16.405Z,16.67
2019-01-16T21:37:24.435Z,18.50
2019-01-16T21:40:24.958Z,16.13
2019-01-16T21:43:13.677Z,17.57
2019-01-16T21:46:05.333Z,14.03
2019-01-16T21:48:53.287Z,14.53
2019-01-16T21:51:36.910Z,17.03
2019-01-16T21:54:33.212Z,15.47
2019-01-16T21:57:18.529Z,19.67
2019-01-16T22:00:25.872Z,12.70
2019-01-16T22:03:16.663Z,17.60
2019-01-16T22:06:13.974Z,18.03
2019-01-16T22:09:15.366Z,20.13
2019-01-16T22:12:10.557Z,15.70
2019-01-16T22:15:07.459Z,14.87
2019-01-16T22:17:56.862Z,13.97
2019-01-16T22:20:45.719Z,15.87
2019-01-16T22:23:36.763Z,17.53
2019-01-16T22:26:31.206Z,22.37
2019-01-16T22:29:20.423Z,17.57
2019-01-16T22:32:07.580Z,15.80
2019-01-16T22:35:11.069Z,17.90
2019-01-16T22:38:07.993Z,22.63
2019-01-16T22:40:58.296Z,17.17
2019-01-16T22:43:53.772Z,17.53
2019-01-16T22:46:47.805Z,12.70
2019-01-16T22:49:47.416Z,16.57
2019-01-16T22:52:31.156Z,22.37
2019-01-16T22:55:20.549Z,17.73
2019-01-16T22:58:07.793Z,23.07
2019-01-16T23:01:00.233Z,17.47
2019-01-16T23:04:00.036Z,15.90
2019-01-16T23:06:50.431Z,18.63
2019-01-16T23:09:34.064Z,18.47
2019-01-16T23:12:26.647Z,20.30
2019-01-16T23:15:18.298Z,15.73
2019-01-16T23:18:06.369Z,19.50
2019-01-16T23:20:50.769Z,16.60
2019-01-16T23:23:49.962Z,19.70
2019-01-16T23:26:38.891Z,14.33
2019-01-16T23:29:50.426Z,16.40
2019-01-16T23:32:40.384Z,15.90
2019-01-16T23:35:29.089Z,19.87
2019-01-16T23:38:11.465Z,20.60
2019-01-16T23:41:03.195Z,17.27
2019-01-16T23:43:51.776Z,15.50
2019-01-16T23:46:45.228Z,15.50
2019-01-16T23:49:44.713Z,18.00
2019-01-16T23:52:34.008Z,14.40
2019-01-16T23:55:28.050Z,8.23
2019-01-16T23:58:18.865Z,10.57
